Flight Track Log - Related Links

Times and Time Zones

All times are in EDT time to prevent confusion due to time zone crossing. See the THY2471 flight status page for this flight to view local times or setup timezone preferences in your user account.

Time Position Orientation Groundspeed Altitude Reporting Facility
EDT Latitude Longitude Course Direction KTS MPH feet Rate Location/Type
Sat 03:45:00 PM 37.3975 34.6660 311° West  Level Estimated
Sat 03:46:00 PM 37.4566 34.5777 310° West  Level Estimated
Sat 03:47:00 PM 37.5156 34.4892 310° West  Level Estimated
Sat 03:48:00 PM 37.5745 34.4006 310° West  Level Estimated
Sat 03:49:00 PM 37.6334 34.3119 310° West  Level Estimated
Sat 03:50:00 PM 37.6922 34.2230 310° West  Level Estimated
Sat 03:51:00 PM 37.7510 34.1340 310° West  Level Estimated
Sat 03:52:00 PM 37.8096 34.0448 310° West  Level Estimated
Sat 03:53:00 PM 37.8683 33.9555 310° West  Level Estimated
Sat 03:54:00 PM 37.9268 33.8660 310° West  Level Estimated
Sat 03:55:00 PM 37.9853 33.7765 310° West  Level Estimated
Sat 03:56:00 PM 38.0437 33.6867 310° West  Level Estimated
Sat 03:57:00 PM 38.1020 33.5968 310° West  Level Estimated
Sat 03:58:00 PM 38.1603 33.5068 309° West  Level Estimated
Sat 03:59:00 PM 38.2185 33.4166 309° West  Level Estimated
Sat 04:00:00 PM 38.2766 33.3263 309° West  Level Estimated
Sat 04:01:00 PM 38.3347 33.2359 309° West  Level Estimated
Sat 04:02:00 PM 38.3927 33.1453 309° West  Level Estimated
Sat 04:03:00 PM 38.4506 33.0545 309° West  Level Estimated
Sat 04:04:00 PM 38.5084 32.9636 309° West  Level Estimated
Sat 04:05:00 PM 38.5662 32.8726 309° West  Level Estimated
Sat 04:06:00 PM 38.6239 32.7814 309° West  Level Estimated
Sat 04:07:00 PM 38.6815 32.6901 309° West  Level Estimated
Sat 04:08:00 PM 38.7391 32.5986 309° West  Level Estimated
Sat 04:09:00 PM 38.7966 32.5070 309° West  Level Estimated
Sat 04:10:00 PM 38.8540 32.4152 309° West  Level Estimated
Sat 04:11:00 PM 38.9114 32.3233 309° West  Level Estimated
Sat 04:12:00 PM 38.9687 32.2312 309° West  Level Estimated
Sat 04:13:00 PM 39.0259 32.1390 309° West  Level Estimated
Sat 04:14:00 PM 39.0830 32.0466 309° West  Level Estimated
Sat 04:15:00 PM 39.1401 31.9541 309° West  Level Estimated
Sat 04:16:00 PM 39.1971 31.8614 308° West  Level Estimated
Sat 04:17:00 PM 39.2540 31.7686 308° West  Level Estimated
Sat 04:18:00 PM 39.3108 31.6756 308° West  Level Estimated
Sat 04:19:00 PM 39.3676 31.5825 308° West  Level Estimated
Sat 04:20:00 PM 39.4243 31.4893 308° West  Level Estimated
Sat 04:21:00 PM 39.4809 31.3958 308° West  Level Estimated
Sat 04:22:00 PM 39.5375 31.3022 308° West  Level Estimated
Sat 04:23:00 PM 39.5939 31.2085 308° West  Level Estimated
Sat 04:24:00 PM 39.6503 31.1146 308° West  Level Estimated
Sat 04:25:00 PM 39.7066 31.0206 308° West  Level Estimated
Sat 04:26:00 PM 39.7629 30.9264 308° West  Level Estimated
Sat 04:27:00 PM 39.8190 30.8321 308° West  Level Estimated
Sat 04:28:00 PM 39.8751 30.7376 308° West  Level Estimated
Sat 04:29:00 PM 39.9311 30.6429 308° West  Level Estimated
Sat 04:30:00 PM 39.9871 30.5481 308° West  Level Estimated
Sat 04:31:00 PM 40.0429 30.4532 308° West  Level Estimated
Sat 04:32:00 PM 40.0987 30.3580 307° West  Level Estimated
Sat 04:33:00 PM 40.1544 30.2628 307° West  Level Estimated
Sat 04:34:00 PM 40.2100 30.1674 307° West  Level Estimated
Sat 04:35:00 PM 40.2656 30.0718 307° West  Level Estimated
Sat 04:36:00 PM 40.3211 29.9760 307° West  Level Estimated
Sat 04:37:00 PM 40.3765 29.8801 307° West  Level Estimated
Sat 04:38:00 PM 40.4318 29.7841 307° West  Level Estimated
Sat 04:39:00 PM 40.4870 29.6879 307° West  Level Estimated
Sat 04:40:00 PM 40.5421 29.5915 307° West  Level Estimated
Sat 04:41:00 PM 40.5972 29.4950 307° West  Level Estimated
Sat 04:42:00 PM 40.6522 29.3983 307° West  Level Estimated
Sat 04:43:00 PM 40.7071 29.3014 307° West  Level Estimated
Sat 04:44:00 PM 40.7620 29.2044 307° West  Level Estimated
Sat 04:45:00 PM 40.8167 29.1072 307° West  Level Estimated
Sat 04:46:00 PM 40.8713 29.0099 307° West  Level Estimated
Sat 04:47:00 PM 40.9259 28.9124 307° West  Level Estimated
Sat 04:48:00 PM 40.9769 28.8211 306° West  Level Estimated
Sat 04:49:00 PM 40.9769 28.8211 21° North  Level Estimated
Sat 04:50:00 PM 40.9769 28.8211 21° North  Level Estimated
Sat 04:51:00 PM 40.9769 28.8211 21° North  Level Estimated
Sat 04:52:00 PM 40.9769 28.8211 21° North  Level Estimated
Sat 04:53:00 PM 40.9769 28.8211 21° North  Level Estimated
Sat 04:54:00 PM 40.9769 28.8211 21° North  Level Estimated
Sat 04:55:00 PM 40.9769 28.8211 21° North  Level Estimated
Sat 04:56:00 PM 40.9769 28.8211 21° North  Level Estimated
Sat 04:57:00 PM 40.9769 28.8211 21° North  Level Estimated
Sat 04:58:00 PM 40.9769 28.8211 21° North  Level Estimated
Sat 04:59:00 PM 40.9769 28.8211 21° North  Level Estimated
Sat 05:00:00 PM 40.9769 28.8211 21° North  Level Estimated
Sat 05:01:00 PM 40.9769 28.8211 21° North  Level Estimated
Sat 05:02:00 PM 40.9769 28.8211 21° North  Level Estimated
Sat 05:03:00 PM 40.9769 28.8211 21° North  Level Estimated
Sat 05:04:00 PM 40.9769 28.8211 21° North  Level Estimated

Login

Don't have an account? Register now (free) for customized features, flight alerts, and more!